createdAt,value
2023-02-12T00:00:17.363Z,93.9
2023-02-12T00:01:16.881Z,94.0
2023-02-12T00:02:17.514Z,93.9
2023-02-12T00:03:17.205Z,93.9
2023-02-12T00:04:16.736Z,93.9
2023-02-12T00:05:17.251Z,93.9
2023-02-12T00:06:16.712Z,93.8
2023-02-12T00:07:17.202Z,93.8
2023-02-12T00:08:16.699Z,93.7
2023-02-12T00:09:17.217Z,93.8
2023-02-12T00:10:16.721Z,93.8
2023-02-12T00:11:17.250Z,93.8
2023-02-12T00:12:16.813Z,93.9
2023-02-12T00:13:17.327Z,94.0
2023-02-12T00:14:16.837Z,94.0
2023-02-12T00:15:17.399Z,94.0
2023-02-12T00:16:17.114Z,94.1
2023-02-12T00:17:16.622Z,94.8
2023-02-12T00:18:17.124Z,94.8
2023-02-12T00:19:16.625Z,94.9
2023-02-12T00:20:17.118Z,94.8
2023-02-12T00:21:16.597Z,94.7
2023-02-12T00:22:17.111Z,95.0
2023-02-12T00:23:16.632Z,95.5
2023-02-12T00:24:17.111Z,95.5
2023-02-12T00:25:16.626Z,95.3
2023-02-12T00:26:17.174Z,95.3
2023-02-12T00:27:16.672Z,95.1
2023-02-12T00:28:17.359Z,95.2
2023-02-12T00:29:16.907Z,95.4
2023-02-12T00:30:17.459Z,95.3
2023-02-12T00:31:17.338Z,95.6
2023-02-12T00:32:17.160Z,95.7
2023-02-12T00:33:16.647Z,95.6
2023-02-12T00:34:17.155Z,95.7
2023-02-12T00:35:16.631Z,95.7
2023-02-12T00:36:17.122Z,95.5
2023-02-12T00:37:16.639Z,95.3
2023-02-12T00:38:17.146Z,95.4
2023-02-12T00:39:16.662Z,95.5
2023-02-12T00:40:17.151Z,95.5
2023-02-12T00:41:16.641Z,95.5
2023-02-12T00:42:17.076Z,95.5
2023-02-12T00:43:16.588Z,95.7
2023-02-12T00:44:17.113Z,95.8
2023-02-12T00:45:16.597Z,95.7
2023-02-12T00:46:17.251Z,95.5
2023-02-12T00:47:16.796Z,95.4
2023-02-12T00:48:17.282Z,95.4
2023-02-12T00:49:16.807Z,95.1
2023-02-12T00:50:17.320Z,95.0
2023-02-12T00:51:16.815Z,94.9
2023-02-12T00:52:17.381Z,94.9
2023-02-12T00:53:17.189Z,94.8
2023-02-12T00:54:16.680Z,94.8
2023-02-12T00:55:17.192Z,94.8
2023-02-12T00:56:16.717Z,94.8
2023-02-12T00:57:17.225Z,94.7
2023-02-12T00:58:19.207Z,94.7
2023-02-12T00:59:16.736Z,94.7
2023-02-12T01:00:17.273Z,94.7
2023-02-12T01:01:16.877Z,94.7
2023-02-12T01:02:17.182Z,94.7
2023-02-12T01:03:16.648Z,94.7
2023-02-12T01:04:17.135Z,94.6
2023-02-12T01:05:16.759Z,94.6
2023-02-12T01:06:17.303Z,94.5
2023-02-12T01:07:16.824Z,94.4
2023-02-12T01:08:17.374Z,94.3
2023-02-12T01:09:16.888Z,94.2
2023-02-12T01:10:17.462Z,94.1
2023-02-12T01:11:17.030Z,93.9
2023-02-12T01:12:16.756Z,93.9
2023-02-12T01:13:17.240Z,94.0
2023-02-12T01:14:16.734Z,94.0
2023-02-12T01:15:17.237Z,94.0
2023-02-12T01:16:17.001Z,94.0
2023-02-12T01:17:16.542Z,94.0
2023-02-12T01:18:17.047Z,94.0
2023-02-12T01:19:16.581Z,94.0
2023-02-12T01:20:17.088Z,94.0
2023-02-12T01:21:16.622Z,93.9
2023-02-12T01:22:17.201Z,93.9
2023-02-12T01:23:16.737Z,93.9
2023-02-12T01:24:17.310Z,93.9
2023-02-12T01:25:20.589Z,93.9
2023-02-12T01:26:17.251Z,93.9
2023-02-12T01:27:16.756Z,94.0
2023-02-12T01:28:17.307Z,94.1
2023-02-12T01:29:16.808Z,94.1
2023-02-12T01:30:17.374Z,94.1
2023-02-12T01:31:17.159Z,94.2
2023-02-12T01:32:17.546Z,94.3
2023-02-12T01:33:17.067Z,94.4
2023-02-12T01:34:16.597Z,94.5
2023-02-12T01:35:17.112Z,94.5
2023-02-12T01:36:16.622Z,94.5
2023-02-12T01:37:17.109Z,94.5
2023-02-12T01:38:16.608Z,94.4
2023-02-12T01:39:17.119Z,94.5
2023-02-12T01:40:16.592Z,94.4
2023-02-12T01:41:17.125Z,94.3
2023-02-12T01:42:16.693Z,94.4
2023-02-12T01:43:17.159Z,94.4
2023-02-12T01:44:16.676Z,94.4
2023-02-12T01:45:17.152Z,94.4
2023-02-12T01:46:16.711Z,94.4
2023-02-12T01:47:17.243Z,94.3
2023-02-12T01:48:16.742Z,94.4
2023-02-12T01:49:17.243Z,94.5
2023-02-12T01:50:16.770Z,94.6
2023-02-12T01:51:17.278Z,94.6
2023-02-12T01:52:17.034Z,94.6
2023-02-12T01:53:16.546Z,94.7
2023-02-12T01:54:17.067Z,94.7
2023-02-12T01:55:16.553Z,94.7
2023-02-12T01:56:17.055Z,94.8
2023-02-12T01:57:16.539Z,94.7
2023-02-12T01:58:17.093Z,94.8
2023-02-12T01:59:16.598Z,95.1
2023-02-12T02:00:17.107Z,95.2
2023-02-12T02:01:16.712Z,95.3
2023-02-12T02:02:17.421Z,95.5
2023-02-12T02:03:17.065Z,95.4
2023-02-12T02:04:16.582Z,95.3
2023-02-12T02:05:17.112Z,95.3
2023-02-12T02:06:16.602Z,95.2
2023-02-12T02:07:17.141Z,95.2
2023-02-12T02:08:16.612Z,95.2
2023-02-12T02:09:17.109Z,95.2
2023-02-12T02:10:16.617Z,95.2
2023-02-12T02:11:17.116Z,95.2
2023-02-12T02:12:17.359Z,95.1
2023-02-12T02:13:16.856Z,95.2
2023-02-12T02:14:17.342Z,95.1
2023-02-12T02:15:16.830Z,95.1
2023-02-12T02:16:17.420Z,95.0
2023-02-12T02:17:16.948Z,94.9
2023-02-12T02:18:17.496Z,94.9
2023-02-12T02:19:17.014Z,94.8
2023-02-12T02:20:16.525Z,94.9
2023-02-12T02:21:17.024Z,94.8
2023-02-12T02:22:16.556Z,94.8
2023-02-12T02:23:17.054Z,94.7
2023-02-12T02:24:16.527Z,94.6
2023-02-12T02:25:16.996Z,94.6
2023-02-12T02:26:16.467Z,94.5
2023-02-12T02:27:16.945Z,94.6
2023-02-12T02:28:17.565Z,94.7
2023-02-12T02:29:17.095Z,94.7
2023-02-12T02:30:16.571Z,94.7
2023-02-12T02:31:17.306Z,94.7
2023-02-12T02:32:16.874Z,94.7
2023-02-12T02:33:17.395Z,94.7
2023-02-12T02:34:16.918Z,94.7
2023-02-12T02:35:17.461Z,94.7
2023-02-12T02:36:16.948Z,94.7
2023-02-12T02:37:17.439Z,94.7
2023-02-12T02:38:16.926Z,94.7
2023-02-12T02:39:17.430Z,94.7
2023-02-12T02:40:16.927Z,94.8
2023-02-12T02:41:17.418Z,94.8
2023-02-12T02:42:16.770Z,94.8
2023-02-12T02:43:17.293Z,94.8
2023-02-12T02:44:16.773Z,94.7
2023-02-12T02:45:17.290Z,94.7
2023-02-12T02:46:16.854Z,94.7
2023-02-12T02:47:17.347Z,95.0
2023-02-12T02:48:16.872Z,94.9
2023-02-12T02:49:17.382Z,94.9
2023-02-12T02:50:16.899Z,94.9
2023-02-12T02:51:17.403Z,94.9
2023-02-12T02:52:17.250Z,94.9
2023-02-12T02:53:16.754Z,94.7
2023-02-12T02:54:17.230Z,94.7
2023-02-12T02:55:16.760Z,94.6
2023-02-12T02:56:17.225Z,94.6
2023-02-12T02:57:16.739Z,94.6
2023-02-12T02:58:17.254Z,94.6
2023-02-12T02:59:16.737Z,94.6
2023-02-12T03:00:17.272Z,94.6
2023-02-12T03:01:16.823Z,94.6
2023-02-12T03:02:16.452Z,94.5
2023-02-12T03:03:17.071Z,94.4
2023-02-12T03:04:16.644Z,94.4
2023-02-12T03:05:17.128Z,94.3
2023-02-12T03:06:16.646Z,94.2
2023-02-12T03:07:17.126Z,94.2
2023-02-12T03:08:16.625Z,94.2
2023-02-12T03:09:17.160Z,94.2
2023-02-12T03:10:16.670Z,94.4
2023-02-12T03:11:17.179Z,94.8
2023-02-12T03:12:16.542Z,95.1
2023-02-12T03:13:17.089Z,95.3
2023-02-12T03:14:16.599Z,95.3
2023-02-12T03:15:17.098Z,95.3
2023-02-12T03:16:16.761Z,95.3
2023-02-12T03:17:17.314Z,95.4
2023-02-12T03:18:16.852Z,95.4
2023-02-12T03:19:17.366Z,95.3
2023-02-12T03:20:16.860Z,95.4
2023-02-12T03:21:17.358Z,95.7
2023-02-12T03:22:16.929Z,95.7
2023-02-12T03:23:17.417Z,95.7
2023-02-12T03:24:16.890Z,95.7
2023-02-12T03:25:17.439Z,95.6
2023-02-12T03:26:16.951Z,95.6
2023-02-12T03:27:17.473Z,95.7
2023-02-12T03:28:17.066Z,95.8
2023-02-12T03:29:16.619Z,95.8
2023-02-12T03:30:17.142Z,95.9
2023-02-12T03:31:16.756Z,95.9
2023-02-12T03:32:16.983Z,96.0
2023-02-12T03:33:16.475Z,95.9
2023-02-12T03:34:16.966Z,96.0
2023-02-12T03:35:17.486Z,95.9
2023-02-12T03:36:16.966Z,95.8
2023-02-12T03:37:17.443Z,95.8
2023-02-12T03:38:16.926Z,95.8
2023-02-12T03:39:17.406Z,95.8
2023-02-12T03:40:16.969Z,95.7
2023-02-12T03:41:17.356Z,95.6
2023-02-12T03:42:17.205Z,95.6
2023-02-12T03:43:16.735Z,95.3
2023-02-12T03:44:17.253Z,95.2
2023-02-12T03:45:16.784Z,95.1
2023-02-12T03:46:17.451Z,95.1
2023-02-12T03:47:16.999Z,95.1
2023-02-12T03:48:16.462Z,95.1
2023-02-12T03:49:16.946Z,95.1
2023-02-12T03:50:17.456Z,95.0
2023-02-12T03:51:16.937Z,95.0
2023-02-12T03:52:16.583Z,95.0
2023-02-12T03:53:17.070Z,94.9
2023-02-12T03:54:16.581Z,94.9
2023-02-12T03:55:17.089Z,94.9
2023-02-12T03:56:16.570Z,95.0
2023-02-12T03:57:17.091Z,95.1
2023-02-12T03:58:16.600Z,95.8
2023-02-12T03:59:17.086Z,96.1
2023-02-12T04:00:16.580Z,96.3
2023-02-12T04:01:17.325Z,96.2
2023-02-12T04:02:16.803Z,96.1
2023-02-12T04:03:17.294Z,96.2
2023-02-12T04:04:16.935Z,96.4
2023-02-12T04:05:17.466Z,96.3
2023-02-12T04:06:16.957Z,96.3
2023-02-12T04:07:17.457Z,96.4
2023-02-12T04:08:16.933Z,96.2
2023-02-12T04:09:17.468Z,96.2
2023-02-12T04:10:16.970Z,96.2
2023-02-12T04:11:16.474Z,96.2
2023-02-12T04:12:17.053Z,96.2
2023-02-12T04:13:16.564Z,96.2
2023-02-12T04:14:17.104Z,96.3
2023-02-12T04:15:17.058Z,96.2
2023-02-12T04:16:16.979Z,96.2
2023-02-12T04:17:16.772Z,96.0
2023-02-12T04:18:17.262Z,95.8
2023-02-12T04:19:16.765Z,95.6
2023-02-12T04:20:17.277Z,95.5
2023-02-12T04:21:16.745Z,95.4
2023-02-12T04:22:17.313Z,95.4
2023-02-12T04:23:16.853Z,95.4
2023-02-12T04:24:17.413Z,95.4
2023-02-12T04:25:16.914Z,95.4
2023-02-12T04:26:17.423Z,95.3
2023-02-12T04:27:17.019Z,95.3
2023-02-12T04:28:16.652Z,95.2
2023-02-12T04:29:17.151Z,95.1
2023-02-12T04:30:16.627Z,94.8
2023-02-12T04:31:17.383Z,94.8
2023-02-12T04:32:16.658Z,94.8
2023-02-12T04:33:17.148Z,94.8
2023-02-12T04:34:16.658Z,94.8
2023-02-12T04:35:17.151Z,94.8
2023-02-12T04:36:16.647Z,94.8
2023-02-12T04:37:17.166Z,94.8
2023-02-12T04:38:16.676Z,94.8
2023-02-12T04:39:17.180Z,94.8
2023-02-12T04:40:16.679Z,94.8
2023-02-12T04:41:17.160Z,94.8
2023-02-12T04:42:17.116Z,94.8
2023-02-12T04:43:16.617Z,94.8
2023-02-12T04:44:17.105Z,94.8
2023-02-12T04:45:16.640Z,94.8
2023-02-12T04:46:17.212Z,94.8
2023-02-12T04:47:16.733Z,94.8
2023-02-12T04:48:17.219Z,94.9
2023-02-12T04:49:16.734Z,94.9
2023-02-12T04:50:17.249Z,94.9
2023-02-12T04:51:16.741Z,94.8
2023-02-12T04:52:17.244Z,94.8
2023-02-12T04:53:16.725Z,94.8
2023-02-12T04:54:17.256Z,94.7
2023-02-12T04:55:16.744Z,94.7
2023-02-12T04:56:17.283Z,94.7
2023-02-12T04:57:16.789Z,94.8
2023-02-12T04:58:17.300Z,94.9
2023-02-12T04:59:16.790Z,94.9
2023-02-12T05:00:17.359Z,94.9
2023-02-12T05:01:17.021Z,94.9
2023-02-12T05:02:16.629Z,94.9
2023-02-12T05:03:17.129Z,94.9
2023-02-12T05:04:16.630Z,95.0
2023-02-12T05:05:17.261Z,95.0
2023-02-12T05:06:16.827Z,95.0
2023-02-12T05:07:17.327Z,95.0
2023-02-12T05:08:16.810Z,95.0
2023-02-12T05:09:17.336Z,95.0
2023-02-12T05:10:16.830Z,95.0
2023-02-12T05:11:17.339Z,95.0
2023-02-12T05:12:16.792Z,95.1
2023-02-12T05:13:17.269Z,95.1
2023-02-12T05:14:16.771Z,95.2
2023-02-12T05:15:17.274Z,95.3
2023-02-12T05:16:16.955Z,95.5
2023-02-12T05:17:16.577Z,95.6
2023-02-12T05:18:17.077Z,95.8
2023-02-12T05:19:16.581Z,95.8
2023-02-12T05:20:17.134Z,95.8
2023-02-12T05:21:16.674Z,95.9
2023-02-12T05:22:17.262Z,96.1
2023-02-12T05:23:16.776Z,96.2
2023-02-12T05:24:17.312Z,96.2
2023-02-12T05:25:16.847Z,96.1
2023-02-12T05:26:17.349Z,96.0
2023-02-12T05:27:16.832Z,96.1
2023-02-12T05:28:17.452Z,96.1
2023-02-12T05:29:16.936Z,96.0
2023-02-12T05:30:17.477Z,96.0
2023-02-12T05:31:21.548Z,96.1
2023-02-12T05:32:16.687Z,96.2
2023-02-12T05:33:17.240Z,96.3
2023-02-12T05:34:16.748Z,96.3
2023-02-12T05:35:17.334Z,96.2
2023-02-12T05:36:16.842Z,96.2
2023-02-12T05:37:17.332Z,96.2
2023-02-12T05:38:16.814Z,96.3
2023-02-12T05:39:17.304Z,96.3
2023-02-12T05:40:16.770Z,96.2
2023-02-12T05:41:17.318Z,96.2
2023-02-12T05:42:16.738Z,96.1
2023-02-12T05:43:17.254Z,96.1
2023-02-12T05:44:16.743Z,96.2
2023-02-12T05:45:17.226Z,96.3
2023-02-12T05:46:16.904Z,96.3
2023-02-12T05:47:17.426Z,96.3
2023-02-12T05:48:16.949Z,96.2
2023-02-12T05:49:17.430Z,96.2
2023-02-12T05:50:16.926Z,96.1
2023-02-12T05:51:17.445Z,96.1
2023-02-12T05:52:16.612Z,96.2
2023-02-12T05:53:17.136Z,96.2
2023-02-12T05:54:16.604Z,96.2
2023-02-12T05:55:17.116Z,96.2
2023-02-12T05:56:16.622Z,96.2
2023-02-12T05:57:17.105Z,96.3
2023-02-12T05:58:16.605Z,96.3
2023-02-12T05:59:17.133Z,96.4
2023-02-12T06:00:16.622Z,96.4
2023-02-12T06:01:17.159Z,96.4
2023-02-12T06:02:16.812Z,96.4
2023-02-12T06:03:17.308Z,96.4
2023-02-12T06:04:16.934Z,96.5
2023-02-12T06:05:17.488Z,96.5
2023-02-12T06:06:17.014Z,96.6
2023-02-12T06:07:16.498Z,96.6
2023-02-12T06:08:16.981Z,96.7
2023-02-12T06:09:16.455Z,96.7
2023-02-12T06:10:16.938Z,96.7
2023-02-12T06:11:17.440Z,96.9
2023-02-12T06:12:17.103Z,96.9
2023-02-12T06:13:16.576Z,96.9
2023-02-12T06:14:17.150Z,96.9
2023-02-12T06:15:16.647Z,96.9
2023-02-12T06:16:17.248Z,96.9
2023-02-12T06:17:16.767Z,97.1
2023-02-12T06:18:17.268Z,97.1
2023-02-12T06:19:16.796Z,97.0
2023-02-12T06:20:17.336Z,97.0
2023-02-12T06:21:16.848Z,97.0
2023-02-12T06:22:17.412Z,97.0
2023-02-12T06:23:16.906Z,97.0
2023-02-12T06:24:17.384Z,97.0
2023-02-12T06:25:16.910Z,97.0
2023-02-12T06:26:17.410Z,97.0
2023-02-12T06:27:16.905Z,97.0
2023-02-12T06:28:17.449Z,97.0
2023-02-12T06:29:16.968Z,97.0
2023-02-12T06:30:16.513Z,97.0
2023-02-12T06:31:17.282Z,97.0
2023-02-12T06:32:17.540Z,97.0
2023-02-12T06:33:17.052Z,96.9
2023-02-12T06:34:16.546Z,96.9
2023-02-12T06:35:17.069Z,97.0
2023-02-12T06:36:16.561Z,97.1
2023-02-12T06:37:17.064Z,97.2
2023-02-12T06:38:16.559Z,97.1
2023-02-12T06:39:17.134Z,97.1
2023-02-12T06:40:16.674Z,97.1
2023-02-12T06:41:17.171Z,97.2
2023-02-12T06:42:16.674Z,97.2
2023-02-12T06:43:17.165Z,97.2
2023-02-12T06:44:16.713Z,97.3
2023-02-12T06:45:17.202Z,97.3
2023-02-12T06:46:16.751Z,97.3
2023-02-12T06:47:17.278Z,97.3
2023-02-12T06:48:16.781Z,97.4
2023-02-12T06:49:17.292Z,97.4
2023-02-12T06:50:16.816Z,97.5
2023-02-12T06:51:17.327Z,97.5
2023-02-12T06:52:16.550Z,97.6
2023-02-12T06:53:17.027Z,97.6
2023-02-12T06:54:16.521Z,97.6
2023-02-12T06:55:17.072Z,97.6
2023-02-12T06:56:16.562Z,97.6
2023-02-12T06:57:17.099Z,97.7
2023-02-12T06:58:16.604Z,97.7
2023-02-12T06:59:17.203Z,97.7
2023-02-12T07:00:16.719Z,97.7
2023-02-12T07:01:17.201Z,97.8
2023-02-12T07:02:17.020Z,97.8
2023-02-12T07:03:16.536Z,97.8
2023-02-12T07:04:17.287Z,97.8
2023-02-12T07:05:16.836Z,97.8
2023-02-12T07:06:17.343Z,97.8
2023-02-12T07:07:16.818Z,97.9
2023-02-12T07:08:17.338Z,97.9
2023-02-12T07:09:16.836Z,97.9
2023-02-12T07:10:17.365Z,97.9
2023-02-12T07:11:16.867Z,97.9
2023-02-12T07:12:16.552Z,97.9
2023-02-12T07:13:17.034Z,97.8
2023-02-12T07:14:16.546Z,97.8
2023-02-12T07:15:17.035Z,97.8
2023-02-12T07:16:16.640Z,97.7
2023-02-12T07:17:17.147Z,97.7
2023-02-12T07:18:16.657Z,97.7
2023-02-12T07:19:17.208Z,97.8
2023-02-12T07:20:16.741Z,97.8
2023-02-12T07:21:17.250Z,97.7
2023-02-12T07:22:16.779Z,97.8
2023-02-12T07:23:17.312Z,97.8
2023-02-12T07:24:16.797Z,97.8
2023-02-12T07:25:17.303Z,97.8
2023-02-12T07:26:16.796Z,97.8
2023-02-12T07:27:17.316Z,97.8
2023-02-12T07:28:17.019Z,97.8
2023-02-12T07:29:16.544Z,97.8
2023-02-12T07:30:17.022Z,97.8
2023-02-12T07:31:16.877Z,97.8
2023-02-12T07:32:17.276Z,97.9
2023-02-12T07:33:16.750Z,97.9
2023-02-12T07:34:17.251Z,97.9
2023-02-12T07:35:16.733Z,97.8
2023-02-12T07:36:17.263Z,97.6
2023-02-12T07:37:16.788Z,97.6
2023-02-12T07:38:17.324Z,97.5
2023-02-12T07:39:16.810Z,97.5
2023-02-12T07:40:17.337Z,97.4
2023-02-12T07:41:16.839Z,97.4
2023-02-12T07:42:16.805Z,97.5
2023-02-12T07:43:17.322Z,97.5
2023-02-12T07:44:16.803Z,97.5
2023-02-12T07:45:17.320Z,97.5
2023-02-12T07:46:16.992Z,97.5
2023-02-12T07:47:16.532Z,97.5
2023-02-12T07:48:17.055Z,97.5
2023-02-12T07:49:16.581Z,97.5
2023-02-12T07:50:17.066Z,97.5
2023-02-12T07:51:16.625Z,97.5
2023-02-12T07:52:16.660Z,97.4
2023-02-12T07:53:17.178Z,97.3
2023-02-12T07:54:16.716Z,97.3
2023-02-12T07:55:17.203Z,97.2
2023-02-12T07:56:16.684Z,97.3
2023-02-12T07:57:17.180Z,97.3
2023-02-12T07:58:16.690Z,97.4
2023-02-12T07:59:17.209Z,97.4
2023-02-12T08:00:16.700Z,97.5
2023-02-12T08:01:17.281Z,97.4
2023-02-12T08:02:17.005Z,97.4
2023-02-12T08:03:16.453Z,97.4
2023-02-12T08:04:17.173Z,97.4
2023-02-12T08:05:16.727Z,97.4
2023-02-12T08:06:17.237Z,97.4
2023-02-12T08:07:16.796Z,97.3
2023-02-12T08:08:17.313Z,97.4
2023-02-12T08:09:16.818Z,97.3
2023-02-12T08:10:17.396Z,97.3
2023-02-12T08:11:16.870Z,97.3
2023-02-12T08:12:16.470Z,97.3
2023-02-12T08:13:17.311Z,97.3
2023-02-12T08:14:16.785Z,97.3
2023-02-12T08:15:17.275Z,97.3
2023-02-12T08:16:16.908Z,97.3
2023-02-12T08:17:17.408Z,97.3
2023-02-12T08:18:16.925Z,97.3
2023-02-12T08:19:25.677Z,97.3
2023-02-12T08:20:16.772Z,97.2
2023-02-12T08:21:17.300Z,97.2
2023-02-12T08:22:16.984Z,97.2
2023-02-12T08:23:16.475Z,97.2
2023-02-12T08:24:16.998Z,97.2
2023-02-12T08:25:16.502Z,97.1
2023-02-12T08:26:16.967Z,97.1
2023-02-12T08:27:17.463Z,97.1
2023-02-12T08:28:17.143Z,97.1
2023-02-12T08:29:16.676Z,97.1
2023-02-12T08:30:17.180Z,97.0
2023-02-12T08:31:17.055Z,97.0
2023-02-12T08:32:17.458Z,96.9
2023-02-12T08:33:16.978Z,96.9
2023-02-12T08:34:16.501Z,96.8
2023-02-12T08:35:17.015Z,96.7
2023-02-12T08:36:16.559Z,96.6
2023-02-12T08:37:17.037Z,96.6
2023-02-12T08:38:16.532Z,96.6
2023-02-12T08:39:17.018Z,96.6
2023-02-12T08:40:16.489Z,96.7
2023-02-12T08:41:20.643Z,96.7
2023-02-12T08:42:16.492Z,96.6
2023-02-12T08:43:16.979Z,96.6
2023-02-12T08:44:16.484Z,96.7
2023-02-12T08:45:17.005Z,96.7
2023-02-12T08:46:16.560Z,96.6
2023-02-12T08:47:17.090Z,96.6
2023-02-12T08:48:16.580Z,96.5
2023-02-12T08:49:17.082Z,96.5
2023-02-12T08:50:16.585Z,96.5
2023-02-12T08:51:17.141Z,96.5
2023-02-12T08:52:17.338Z,96.4
2023-02-12T08:53:16.859Z,96.4
2023-02-12T08:54:17.368Z,96.4
2023-02-12T08:55:16.885Z,96.3
2023-02-12T08:56:17.399Z,96.3
2023-02-12T08:57:16.884Z,96.2
2023-02-12T08:58:17.358Z,96.0
2023-02-12T08:59:16.856Z,96.1
2023-02-12T09:00:17.370Z,96.2
2023-02-12T09:01:17.064Z,96.2
2023-02-12T09:02:16.670Z,96.2
2023-02-12T09:03:17.174Z,96.2
2023-02-12T09:04:16.673Z,96.2
2023-02-12T09:05:17.184Z,96.2
2023-02-12T09:06:16.689Z,96.2
2023-02-12T09:07:17.175Z,96.2
2023-02-12T09:08:16.665Z,96.0
2023-02-12T09:09:17.187Z,95.9
2023-02-12T09:10:16.692Z,96.0
2023-02-12T09:11:17.187Z,96.0
2023-02-12T09:12:16.710Z,96.1
2023-02-12T09:13:17.207Z,96.2
2023-02-12T09:14:16.740Z,96.1
2023-02-12T09:15:17.231Z,96.3
2023-02-12T09:16:16.875Z,96.2
2023-02-12T09:17:17.399Z,96.3
2023-02-12T09:18:16.945Z,96.5
2023-02-12T09:19:16.446Z,96.4
2023-02-12T09:20:16.943Z,96.4
2023-02-12T09:21:17.446Z,96.4
2023-02-12T09:22:17.291Z,96.2
2023-02-12T09:23:16.782Z,96.2
2023-02-12T09:24:17.279Z,96.0
2023-02-12T09:25:16.784Z,95.8
2023-02-12T09:26:17.290Z,95.6
2023-02-12T09:27:16.810Z,95.6
2023-02-12T09:28:17.441Z,95.6
2023-02-12T09:29:17.006Z,95.3
2023-02-12T09:30:16.517Z,95.4
2023-02-12T09:31:17.236Z,94.7
2023-02-12T09:32:16.745Z,94.8
2023-02-12T09:33:17.230Z,94.9
2023-02-12T09:34:16.766Z,94.9
2023-02-12T09:35:17.260Z,94.6
2023-02-12T09:36:16.742Z,94.3
2023-02-12T09:37:17.216Z,94.7
2023-02-12T09:38:16.697Z,94.9
2023-02-12T09:39:17.181Z,94.9
2023-02-12T09:40:16.652Z,94.7
2023-02-12T09:41:17.145Z,94.8
2023-02-12T09:42:16.772Z,94.9
2023-02-12T09:43:17.269Z,94.9
2023-02-12T09:44:16.780Z,94.7
2023-02-12T09:45:17.351Z,94.3
2023-02-12T09:46:17.070Z,94.4
2023-02-12T09:47:16.673Z,94.4
2023-02-12T09:48:17.223Z,94.6
2023-02-12T09:49:16.716Z,94.3
2023-02-12T09:50:17.228Z,94.5
2023-02-12T09:51:16.732Z,94.7
2023-02-12T09:52:17.369Z,94.6
2023-02-12T09:53:16.903Z,94.2
2023-02-12T09:54:17.402Z,93.9
2023-02-12T09:55:16.900Z,94.0
2023-02-12T09:56:17.414Z,94.3
2023-02-12T09:57:16.928Z,94.2
2023-02-12T09:58:17.437Z,93.9
2023-02-12T09:59:16.953Z,93.7
2023-02-12T10:00:17.479Z,93.6
2023-02-12T10:01:17.102Z,93.4
2023-02-12T10:02:16.515Z,93.3
2023-02-12T10:03:17.042Z,92.3
2023-02-12T10:04:16.681Z,92.3
2023-02-12T10:05:17.375Z,93.2
2023-02-12T10:06:16.866Z,93.5
2023-02-12T10:07:17.345Z,93.4
2023-02-12T10:08:16.849Z,93.3
2023-02-12T10:09:17.349Z,93.3
2023-02-12T10:10:16.857Z,93.3
2023-02-12T10:11:17.350Z,93.1
2023-02-12T10:12:16.658Z,92.0
2023-02-12T10:13:17.173Z,92.1
2023-02-12T10:14:16.685Z,92.0
2023-02-12T10:15:17.259Z,92.4
2023-02-12T10:16:16.920Z,92.7
2023-02-12T10:17:16.501Z,93.1
2023-02-12T10:18:16.988Z,93.3
2023-02-12T10:19:16.456Z,93.3
2023-02-12T10:20:16.970Z,93.3
2023-02-12T10:21:16.494Z,93.2
2023-02-12T10:22:17.378Z,93.0
2023-02-12T10:23:16.862Z,92.8
2023-02-12T10:24:17.344Z,92.8
2023-02-12T10:25:16.849Z,92.4
2023-02-12T10:26:17.412Z,92.7
2023-02-12T10:27:16.928Z,92.6
2023-02-12T10:28:17.477Z,92.5
2023-02-12T10:29:16.985Z,92.4
2023-02-12T10:30:16.502Z,92.5
2023-02-12T10:31:17.194Z,92.4
2023-02-12T10:32:17.422Z,91.5
2023-02-12T10:33:16.958Z,92.0
2023-02-12T10:34:17.452Z,92.0
2023-02-12T10:35:16.938Z,92.2
2023-02-12T10:36:17.408Z,91.6
2023-02-12T10:37:16.891Z,92.0
2023-02-12T10:38:17.370Z,91.7
2023-02-12T10:39:16.893Z,91.6
2023-02-12T10:40:17.413Z,91.8
2023-02-12T10:41:16.915Z,92.0
2023-02-12T10:42:16.935Z,91.9
2023-02-12T10:43:17.444Z,92.0
2023-02-12T10:44:16.924Z,91.9
2023-02-12T10:45:17.498Z,91.5
2023-02-12T10:46:17.049Z,91.7
2023-02-12T10:47:16.559Z,91.7
2023-02-12T10:48:19.695Z,91.4
2023-02-12T10:49:17.226Z,91.3
2023-02-12T10:50:16.721Z,91.3
2023-02-12T10:51:17.361Z,91.5
2023-02-12T10:52:17.453Z,91.5
2023-02-12T10:53:16.950Z,91.3
2023-02-12T10:54:17.463Z,91.6
2023-02-12T10:55:16.978Z,91.5
2023-02-12T10:56:16.462Z,91.9
2023-02-12T10:57:17.022Z,92.1
2023-02-12T10:58:16.513Z,92.0
2023-02-12T10:59:17.004Z,91.4
2023-02-12T11:00:16.517Z,91.7
2023-02-12T11:01:17.255Z,91.8
2023-02-12T11:02:17.380Z,91.9
2023-02-12T11:03:16.900Z,91.8
2023-02-12T11:04:17.411Z,91.7
2023-02-12T11:05:16.977Z,92.0
2023-02-12T11:06:16.521Z,91.8
2023-02-12T11:07:17.054Z,91.8
2023-02-12T11:08:16.550Z,91.9
2023-02-12T11:09:17.050Z,91.7
2023-02-12T11:10:16.532Z,91.8
2023-02-12T11:11:17.062Z,91.7
2023-02-12T11:12:16.977Z,91.6
2023-02-12T11:13:16.457Z,91.7
2023-02-12T11:14:16.983Z,91.7
2023-02-12T11:15:16.526Z,91.4
2023-02-12T11:16:17.171Z,91.4
2023-02-12T11:17:16.671Z,91.6
2023-02-12T11:18:17.171Z,91.8
2023-02-12T11:19:16.635Z,92.0
2023-02-12T11:20:17.139Z,91.8
2023-02-12T11:21:16.635Z,91.8
2023-02-12T11:22:17.290Z,91.3
2023-02-12T11:23:16.805Z,91.3
2023-02-12T11:24:17.289Z,91.0
2023-02-12T11:25:16.873Z,91.3
2023-02-12T11:26:17.430Z,91.5
2023-02-12T11:27:16.988Z,91.2
2023-02-12T11:28:16.731Z,91.7
2023-02-12T11:29:17.619Z,91.9
2023-02-12T11:30:17.191Z,91.9
2023-02-12T11:31:16.912Z,92.1
2023-02-12T11:32:16.893Z,92.3
2023-02-12T11:33:17.378Z,92.3
2023-02-12T11:34:16.868Z,92.3
2023-02-12T11:35:17.414Z,92.1
2023-02-12T11:36:16.935Z,92.4
2023-02-12T11:37:17.462Z,92.2
2023-02-12T11:38:16.945Z,92.0
2023-02-12T11:39:17.425Z,91.8
2023-02-12T11:40:16.989Z,92.0
2023-02-12T11:41:16.495Z,92.1
2023-02-12T11:42:16.835Z,92.1
2023-02-12T11:43:17.311Z,92.1
2023-02-12T11:44:16.832Z,91.7
2023-02-12T11:45:17.326Z,91.4
2023-02-12T11:46:16.911Z,91.4
2023-02-12T11:47:17.442Z,91.9
2023-02-12T11:48:16.958Z,92.2
2023-02-12T11:49:17.433Z,92.3
2023-02-12T11:50:16.946Z,92.1
2023-02-12T11:51:17.477Z,91.8
2023-02-12T11:52:16.757Z,91.8
2023-02-12T11:53:17.296Z,91.7
2023-02-12T11:54:16.794Z,91.7
2023-02-12T11:55:17.301Z,91.7
2023-02-12T11:56:16.804Z,91.6
2023-02-12T11:57:17.315Z,91.5
2023-02-12T11:58:16.835Z,91.5
2023-02-12T11:59:17.362Z,91.4
2023-02-12T12:00:16.886Z,91.4
2023-02-12T12:01:19.752Z,91.6
2023-02-12T12:02:17.013Z,91.6
2023-02-12T12:03:16.735Z,91.8
2023-02-12T12:04:17.251Z,91.8
2023-02-12T12:05:16.739Z,91.9
2023-02-12T12:06:17.258Z,91.8
2023-02-12T12:07:16.751Z,91.7
2023-02-12T12:08:17.262Z,91.6
2023-02-12T12:09:16.805Z,91.5
2023-02-12T12:10:17.340Z,91.4
2023-02-12T12:11:16.826Z,91.1
2023-02-12T12:12:16.858Z,91.1
2023-02-12T12:13:17.351Z,91.4
2023-02-12T12:14:16.853Z,91.1
2023-02-12T12:15:17.356Z,90.9
2023-02-12T12:16:16.911Z,91.0
2023-02-12T12:17:17.597Z,91.4
2023-02-12T12:18:17.415Z,91.7
2023-02-12T12:19:16.899Z,91.9
2023-02-12T12:20:17.445Z,91.9
2023-02-12T12:21:16.942Z,91.9
2023-02-12T12:22:16.494Z,91.7
2023-02-12T12:23:17.014Z,91.2
2023-02-12T12:24:16.518Z,91.0
2023-02-12T12:25:17.235Z,91.0
2023-02-12T12:26:16.853Z,90.9
2023-02-12T12:27:17.348Z,90.7
2023-02-12T12:28:17.006Z,90.6
2023-02-12T12:29:16.530Z,90.0
2023-02-12T12:30:17.215Z,90.4
2023-02-12T12:31:16.923Z,90.4
2023-02-12T12:32:17.072Z,89.7
2023-02-12T12:33:16.599Z,90.3
2023-02-12T12:34:17.108Z,90.0
2023-02-12T12:35:16.660Z,90.1
2023-02-12T12:36:17.214Z,90.7
2023-02-12T12:37:16.729Z,91.0
2023-02-12T12:38:17.228Z,90.9
2023-02-12T12:39:16.753Z,90.8
2023-02-12T12:40:17.373Z,90.8
2023-02-12T12:41:16.903Z,90.6
2023-02-12T12:42:17.440Z,90.6
2023-02-12T12:43:16.972Z,89.7
2023-02-12T12:44:16.548Z,90.3
2023-02-12T12:45:17.151Z,90.6
2023-02-12T12:46:16.773Z,90.8
2023-02-12T12:47:17.297Z,91.2
2023-02-12T12:48:16.849Z,91.8
2023-02-12T12:49:17.403Z,91.9
2023-02-12T12:50:17.020Z,91.5
2023-02-12T12:51:16.526Z,91.7
2023-02-12T12:52:17.046Z,91.7
2023-02-12T12:53:16.533Z,91.9
2023-02-12T12:54:17.005Z,92.0
2023-02-12T12:55:16.830Z,91.9
2023-02-12T12:56:16.525Z,92.0
2023-02-12T12:57:17.109Z,91.8
2023-02-12T12:58:16.605Z,91.7
2023-02-12T12:59:17.096Z,91.5
2023-02-12T13:00:20.753Z,91.5
2023-02-12T13:01:16.576Z,91.6
2023-02-12T13:02:16.653Z,91.6
2023-02-12T13:03:17.154Z,91.6
2023-02-12T13:04:16.691Z,91.5
2023-02-12T13:05:17.178Z,91.7
2023-02-12T13:06:16.656Z,91.9
2023-02-12T13:07:17.177Z,92.1
2023-02-12T13:08:16.706Z,92.1
2023-02-12T13:09:17.204Z,92.0
2023-02-12T13:10:16.884Z,92.0
2023-02-12T13:11:17.403Z,92.0
2023-02-12T13:12:16.803Z,92.2
2023-02-12T13:13:17.289Z,92.2
2023-02-12T13:14:16.807Z,92.2
2023-02-12T13:15:17.311Z,92.2
2023-02-12T13:16:16.882Z,91.9
2023-02-12T13:17:17.427Z,91.8
2023-02-12T13:18:16.960Z,91.9